createdAt,value
2022-10-21T00:00:02.159Z,1016.85
2022-10-21T00:01:02.323Z,1016.89
2022-10-21T00:02:02.491Z,1016.89
2022-10-21T00:03:02.662Z,1016.90
2022-10-21T00:04:02.822Z,1016.93
2022-10-21T00:05:02.984Z,1017.00
2022-10-21T00:06:03.144Z,1016.92
2022-10-21T00:07:03.304Z,1016.95
2022-10-21T00:08:03.479Z,1016.95
2022-10-21T00:09:03.742Z,1016.99
2022-10-21T00:10:03.794Z,1017.05
2022-10-21T00:11:03.961Z,1017.12
2022-10-21T00:12:04.132Z,1017.11
2022-10-21T00:13:04.295Z,1017.19
2022-10-21T00:14:04.457Z,1017.12
2022-10-21T00:15:04.624Z,1017.16
2022-10-21T00:16:04.784Z,1017.09
2022-10-21T00:17:04.962Z,1017.13
2022-10-21T00:18:05.114Z,1017.16
2022-10-21T00:19:05.283Z,1017.25
2022-10-21T00:20:05.442Z,1017.28
2022-10-21T00:21:05.637Z,1017.30
2022-10-21T00:22:05.804Z,1017.29
2022-10-21T00:23:05.979Z,1017.29
2022-10-21T00:24:06.124Z,1017.33
2022-10-21T00:25:06.323Z,1017.29
2022-10-21T00:26:06.482Z,1017.37
2022-10-21T00:27:06.663Z,1017.40
2022-10-21T00:28:06.823Z,1017.39
2022-10-21T00:29:06.997Z,1017.36
2022-10-21T00:30:07.163Z,1017.30
2022-10-21T00:31:07.324Z,1017.31
2022-10-21T00:32:07.503Z,1017.36
2022-10-21T00:33:07.679Z,1017.35
2022-10-21T00:34:07.843Z,1017.33
2022-10-21T00:35:08.004Z,1017.29
2022-10-21T00:36:08.182Z,1017.34
2022-10-21T00:37:08.352Z,1017.25
2022-10-21T00:38:08.505Z,1017.24
2022-10-21T00:39:08.705Z,1017.21
2022-10-21T00:40:08.862Z,1017.17
2022-10-21T00:41:09.034Z,1017.18
2022-10-21T00:42:09.204Z,1017.15
2022-10-21T00:43:09.374Z,1017.22
2022-10-21T00:44:09.534Z,1017.17
2022-10-21T00:45:09.703Z,1017.17
2022-10-21T00:46:09.861Z,1017.13
2022-10-21T00:47:10.073Z,1017.10
2022-10-21T00:48:10.241Z,1017.06
2022-10-21T00:49:10.433Z,1017.02
2022-10-21T00:50:10.575Z,1017.03
2022-10-21T00:51:10.740Z,1017.04
2022-10-21T00:52:10.913Z,1017.01
2022-10-21T00:53:11.073Z,1017.00
2022-10-21T00:54:11.232Z,1017.00
2022-10-21T00:55:11.394Z,1016.90
2022-10-21T00:56:15.652Z,1016.87
2022-10-21T00:57:12.762Z,1016.84
2022-10-21T00:58:11.902Z,1016.90
2022-10-21T00:59:12.075Z,1016.91
2022-10-21T01:00:12.242Z,1016.99
2022-10-21T01:01:13.659Z,1016.97
2022-10-21T01:02:12.598Z,1016.95
2022-10-21T01:03:12.763Z,1016.92
2022-10-21T01:04:12.932Z,1016.86
2022-10-21T01:05:13.093Z,1016.89
2022-10-21T01:06:13.252Z,1016.88
2022-10-21T01:07:13.452Z,1016.84
2022-10-21T01:08:13.580Z,1016.83
2022-10-21T01:09:13.808Z,1016.79
2022-10-21T01:10:13.912Z,1016.75
2022-10-21T01:11:14.082Z,1016.76
2022-10-21T01:12:14.252Z,1016.69
2022-10-21T01:13:14.420Z,1016.71
2022-10-21T01:14:14.584Z,1016.65
2022-10-21T01:15:14.753Z,1016.63
2022-10-21T01:16:14.939Z,1016.58
2022-10-21T01:17:26.587Z,1016.56
2022-10-21T01:18:16.252Z,1016.57
2022-10-21T01:19:15.432Z,1016.54
2022-10-21T01:20:15.597Z,1016.55
2022-10-21T01:21:15.784Z,1016.56
2022-10-21T01:22:15.953Z,1016.56
2022-10-21T01:23:16.122Z,1016.57
2022-10-21T01:24:16.276Z,1016.56
2022-10-21T01:25:16.472Z,1016.61
2022-10-21T01:26:16.640Z,1016.58
2022-10-21T01:27:16.822Z,1016.59
2022-10-21T01:28:16.981Z,1016.65
2022-10-21T01:29:17.154Z,1016.62
2022-10-21T01:30:17.311Z,1016.62
2022-10-21T01:31:17.490Z,1016.58
2022-10-21T01:32:17.651Z,1016.56
2022-10-21T01:33:17.818Z,1016.57
2022-10-21T01:34:17.972Z,1016.52
2022-10-21T01:35:18.151Z,1016.51
2022-10-21T01:36:18.322Z,1016.54
2022-10-21T01:37:18.503Z,1016.54
2022-10-21T01:38:18.666Z,1016.50
2022-10-21T01:39:18.833Z,1016.43
2022-10-21T01:40:18.989Z,1016.42
2022-10-21T01:41:19.172Z,1016.37
2022-10-21T01:42:19.333Z,1016.34
2022-10-21T01:43:19.501Z,1016.37
2022-10-21T01:44:19.661Z,1016.35
2022-10-21T01:45:19.824Z,1016.31
2022-10-21T01:46:19.992Z,1016.26
2022-10-21T01:47:20.170Z,1016.25
2022-10-21T01:48:20.323Z,1016.18
2022-10-21T01:49:20.521Z,1016.18
2022-10-21T01:50:20.692Z,1016.11
2022-10-21T01:51:20.912Z,1016.13
2022-10-21T01:52:21.023Z,1016.07
2022-10-21T01:53:21.200Z,1016.02
2022-10-21T01:54:21.351Z,1016.04
2022-10-21T01:55:21.555Z,1016.00
2022-10-21T01:56:21.731Z,1015.98
2022-10-21T01:57:21.896Z,1015.98
2022-10-21T01:58:22.062Z,1015.96
2022-10-21T01:59:22.221Z,1015.93
2022-10-21T02:00:22.498Z,1015.94
2022-10-21T02:01:22.684Z,1015.89
2022-10-21T02:02:22.761Z,1015.90
2022-10-21T02:03:22.919Z,1015.90
2022-10-21T02:04:23.080Z,1015.84
2022-10-21T02:05:23.231Z,1015.78
2022-10-21T02:06:23.411Z,1015.73
2022-10-21T02:07:23.590Z,1015.75
2022-10-21T02:08:23.760Z,1015.74
2022-10-21T02:09:23.965Z,1015.77
2022-10-21T02:10:24.090Z,1015.83
2022-10-21T02:11:24.301Z,1015.85
2022-10-21T02:12:24.461Z,1015.86
2022-10-21T02:13:24.620Z,1015.84
2022-10-21T02:14:24.788Z,1015.82
2022-10-21T02:15:24.941Z,1015.85
2022-10-21T02:16:25.130Z,1015.82
2022-10-21T02:17:25.284Z,1015.85
2022-10-21T02:18:25.501Z,1015.90
2022-10-21T02:19:25.659Z,1015.91
2022-10-21T02:20:25.800Z,1015.89
2022-10-21T02:21:26.016Z,1015.86
2022-10-21T02:22:26.172Z,1015.86
2022-10-21T02:23:26.330Z,1015.87
2022-10-21T02:24:26.491Z,1015.81
2022-10-21T02:25:26.651Z,1015.68
2022-10-21T02:26:26.830Z,1015.60
2022-10-21T02:27:26.999Z,1015.66
2022-10-21T02:28:27.194Z,1015.55
2022-10-21T02:29:27.340Z,1015.60
2022-10-21T02:30:27.504Z,1015.56
2022-10-21T02:31:27.679Z,1015.60
2022-10-21T02:32:27.841Z,1015.59
2022-10-21T02:33:28.000Z,1015.58
2022-10-21T02:34:28.174Z,1015.55
2022-10-21T02:35:28.320Z,1015.55
2022-10-21T02:36:28.499Z,1015.53
2022-10-21T02:37:28.702Z,1015.50
2022-10-21T02:38:28.830Z,1015.50
2022-10-21T02:39:28.986Z,1015.45
2022-10-21T02:40:29.148Z,1015.38
2022-10-21T02:41:29.322Z,1015.35
2022-10-21T02:42:29.480Z,1015.33
2022-10-21T02:43:29.640Z,1015.27
2022-10-21T02:44:29.841Z,1015.27
2022-10-21T02:45:29.990Z,1015.25
2022-10-21T02:46:30.169Z,1015.20
2022-10-21T02:47:30.329Z,1015.21
2022-10-21T02:48:30.498Z,1015.19
2022-10-21T02:49:30.649Z,1015.17
2022-10-21T02:50:30.809Z,1015.17
2022-10-21T02:51:30.987Z,1015.15
2022-10-21T02:52:31.162Z,1015.21
2022-10-21T02:53:31.303Z,1015.24
2022-10-21T02:54:31.498Z,1015.28
2022-10-21T02:55:31.680Z,1015.23
2022-10-21T02:56:31.869Z,1015.21
2022-10-21T02:57:32.009Z,1015.19
2022-10-21T02:58:32.209Z,1015.15
2022-10-21T02:59:32.361Z,1015.22
2022-10-21T03:00:33.082Z,1015.26
2022-10-21T03:01:32.721Z,1015.24
2022-10-21T03:02:32.881Z,1015.25
2022-10-21T03:03:33.041Z,1015.27
2022-10-21T03:04:33.221Z,1015.29
2022-10-21T03:05:33.385Z,1015.32
2022-10-21T03:06:33.589Z,1015.30
2022-10-21T03:07:33.750Z,1015.32
2022-10-21T03:08:33.948Z,1015.35
2022-10-21T03:09:34.068Z,1015.35
2022-10-21T03:10:34.228Z,1015.33
2022-10-21T03:11:34.399Z,1015.36
2022-10-21T03:12:34.561Z,1015.38
2022-10-21T03:13:34.721Z,1015.46
2022-10-21T03:14:34.878Z,1015.47
2022-10-21T03:15:35.039Z,1015.46
2022-10-21T03:16:35.218Z,1015.47
2022-10-21T03:17:35.369Z,1015.51
2022-10-21T03:18:35.536Z,1015.47
2022-10-21T03:19:35.688Z,1015.42
2022-10-21T03:20:35.887Z,1015.43
2022-10-21T03:21:36.059Z,1015.38
2022-10-21T03:22:36.220Z,1015.37
2022-10-21T03:23:36.381Z,1015.39
2022-10-21T03:24:36.539Z,1015.37
2022-10-21T03:25:36.699Z,1015.37
2022-10-21T03:26:36.877Z,1015.31
2022-10-21T03:27:37.031Z,1015.28
2022-10-21T03:28:37.191Z,1015.27
2022-10-21T03:29:37.367Z,1015.32
2022-10-21T03:30:37.529Z,1015.34
2022-10-21T03:31:37.708Z,1015.34
2022-10-21T03:32:38.239Z,1015.39
2022-10-21T03:33:38.039Z,1015.35
2022-10-21T03:34:38.206Z,1015.33
2022-10-21T03:35:38.368Z,1015.32
2022-10-21T03:36:38.548Z,1015.31
2022-10-21T03:37:38.708Z,1015.32
2022-10-21T03:38:38.895Z,1015.24
2022-10-21T03:39:39.050Z,1015.20
2022-10-21T03:40:39.248Z,1015.22
2022-10-21T03:41:39.433Z,1015.23
2022-10-21T03:42:40.047Z,1015.25
2022-10-21T03:43:39.758Z,1015.31
2022-10-21T03:44:39.929Z,1015.28
2022-10-21T03:45:40.095Z,1015.27
2022-10-21T03:46:40.306Z,1015.32
2022-10-21T03:47:40.466Z,1015.30
2022-10-21T03:48:40.629Z,1015.30
2022-10-21T03:49:40.801Z,1015.31
2022-10-21T03:50:40.988Z,1015.36
2022-10-21T03:51:41.138Z,1015.27
2022-10-21T03:52:41.455Z,1015.30
2022-10-21T03:53:43.760Z,1015.15
2022-10-21T03:54:41.678Z,1015.09
2022-10-21T03:55:41.847Z,1015.07
2022-10-21T03:56:42.016Z,1015.05
2022-10-21T03:57:42.624Z,1015.02
2022-10-21T03:58:42.379Z,1015.07
2022-10-21T03:59:42.538Z,1014.98
2022-10-21T04:00:42.720Z,1014.98
2022-10-21T04:01:42.918Z,1014.93
2022-10-21T04:02:43.070Z,1014.88
2022-10-21T04:03:43.227Z,1014.88
2022-10-21T04:04:43.405Z,1014.88
2022-10-21T04:05:43.579Z,1014.86
2022-10-21T04:06:43.738Z,1014.84
2022-10-21T04:07:43.905Z,1014.85
2022-10-21T04:08:44.147Z,1014.79
2022-10-21T04:09:44.244Z,1014.76
2022-10-21T04:10:44.492Z,1014.71
2022-10-21T04:11:44.580Z,1014.67
2022-10-21T04:12:44.742Z,1014.67
2022-10-21T04:13:44.899Z,1014.69
2022-10-21T04:14:45.068Z,1014.74
2022-10-21T04:15:45.239Z,1014.72
2022-10-21T04:16:47.933Z,1014.72
2022-10-21T04:17:45.587Z,1014.73
2022-10-21T04:18:45.749Z,1014.70
2022-10-21T04:19:45.929Z,1014.69
2022-10-21T04:20:46.085Z,1014.70
2022-10-21T04:21:46.238Z,1014.64
2022-10-21T04:22:46.437Z,1014.61
2022-10-21T04:23:46.610Z,1014.60
2022-10-21T04:24:46.797Z,1014.57
2022-10-21T04:25:46.957Z,1014.54
2022-10-21T04:26:47.117Z,1014.52
2022-10-21T04:27:47.286Z,1014.51
2022-10-21T04:28:47.448Z,1014.58
2022-10-21T04:29:47.637Z,1014.56
2022-10-21T04:30:47.797Z,1014.57
2022-10-21T04:31:47.968Z,1014.49
2022-10-21T04:32:48.137Z,1014.54
2022-10-21T04:33:48.296Z,1014.47
2022-10-21T04:34:48.476Z,1014.45
2022-10-21T04:35:48.627Z,1014.43
2022-10-21T04:36:48.837Z,1014.40
2022-10-21T04:37:48.976Z,1014.43
2022-10-21T04:38:49.177Z,1014.41
2022-10-21T04:39:49.346Z,1014.39
2022-10-21T04:40:49.506Z,1014.39
2022-10-21T04:41:49.666Z,1014.42
2022-10-21T04:42:49.857Z,1014.39
2022-10-21T04:43:50.021Z,1014.40
2022-10-21T04:44:50.456Z,1014.44
2022-10-21T04:45:50.346Z,1014.39
2022-10-21T04:46:50.526Z,1014.37
2022-10-21T04:47:50.696Z,1014.35
2022-10-21T04:48:50.858Z,1014.39
2022-10-21T04:49:51.028Z,1014.37
2022-10-21T04:50:51.186Z,1014.33
2022-10-21T04:51:51.346Z,1014.31
2022-10-21T04:52:51.506Z,1014.32
2022-10-21T04:53:51.667Z,1014.30
2022-10-21T04:54:51.845Z,1014.24
2022-10-21T04:55:52.005Z,1014.19
2022-10-21T04:56:52.168Z,1014.21
2022-10-21T04:57:52.336Z,1014.18
2022-10-21T04:58:52.496Z,1014.17
2022-10-21T04:59:52.686Z,1014.19
2022-10-21T05:00:52.925Z,1014.23
2022-10-21T05:01:53.058Z,1014.22
2022-10-21T05:02:53.196Z,1014.23
2022-10-21T05:03:53.356Z,1014.25
2022-10-21T05:04:53.548Z,1014.32
2022-10-21T05:05:53.706Z,1014.23
2022-10-21T05:06:53.867Z,1014.22
2022-10-21T05:07:54.026Z,1014.22
2022-10-21T05:08:54.248Z,1014.18
2022-10-21T05:09:54.364Z,1014.19
2022-10-21T05:10:54.534Z,1014.16
2022-10-21T05:11:54.705Z,1014.13
2022-10-21T05:12:54.874Z,1014.13
2022-10-21T05:13:55.051Z,1014.09
2022-10-21T05:14:55.217Z,1014.06
2022-10-21T05:15:55.379Z,1014.04
2022-10-21T05:16:55.536Z,1014.03
2022-10-21T05:17:55.700Z,1014.00
2022-10-21T05:18:55.865Z,1014.01
2022-10-21T05:19:56.048Z,1013.98
2022-10-21T05:20:56.215Z,1014.04
2022-10-21T05:21:56.376Z,1014.01
2022-10-21T05:22:56.653Z,1014.03
2022-10-21T05:23:56.750Z,1014.00
2022-10-21T05:24:56.915Z,1014.02
2022-10-21T05:25:57.066Z,1013.97
2022-10-21T05:26:57.246Z,1013.98
2022-10-21T05:27:57.427Z,1013.93
2022-10-21T05:28:57.625Z,1013.89
2022-10-21T05:29:57.779Z,1013.96
2022-10-21T05:30:57.996Z,1013.97
2022-10-21T05:31:58.119Z,1013.93
2022-10-21T05:32:58.295Z,1013.91
2022-10-21T05:33:58.486Z,1013.89
2022-10-21T05:34:58.664Z,1013.82
2022-10-21T05:35:58.846Z,1013.77
2022-10-21T05:36:59.031Z,1013.76
2022-10-21T05:37:59.183Z,1013.70
2022-10-21T05:38:59.375Z,1013.66
2022-10-21T05:39:59.515Z,1013.61
2022-10-21T05:40:59.695Z,1013.62
2022-10-21T05:41:59.914Z,1013.62
2022-10-21T05:43:00.067Z,1013.64
2022-10-21T05:44:00.266Z,1013.65
2022-10-21T05:45:00.417Z,1013.60
2022-10-21T05:46:00.602Z,1013.58
2022-10-21T05:47:00.793Z,1013.62
2022-10-21T05:48:00.996Z,1013.63
2022-10-21T05:49:01.176Z,1013.62
2022-10-21T05:50:01.344Z,1013.68
2022-10-21T05:51:01.545Z,1013.66
2022-10-21T05:52:01.684Z,1013.69
2022-10-21T05:53:01.848Z,1013.71
2022-10-21T05:54:02.015Z,1013.68
2022-10-21T05:55:02.184Z,1013.66
2022-10-21T05:56:02.364Z,1013.65
2022-10-21T05:57:02.633Z,1013.67
2022-10-21T05:58:02.695Z,1013.73
2022-10-21T05:59:05.454Z,1013.78
2022-10-21T06:00:04.025Z,1013.75
2022-10-21T06:01:03.272Z,1013.74
2022-10-21T06:02:03.382Z,1013.74
2022-10-21T06:03:03.575Z,1013.70
2022-10-21T06:04:03.734Z,1013.69
2022-10-21T06:05:03.904Z,1013.72
2022-10-21T06:06:04.085Z,1013.73
2022-10-21T06:07:04.276Z,1013.75
2022-10-21T06:08:04.465Z,1013.74
2022-10-21T06:09:04.710Z,1013.80
2022-10-21T06:10:04.834Z,1013.79
2022-10-21T06:11:05.024Z,1013.81
2022-10-21T06:12:05.184Z,1013.89
2022-10-21T06:13:05.344Z,1013.83
2022-10-21T06:14:05.523Z,1013.78
2022-10-21T06:15:05.674Z,1013.72
2022-10-21T06:17:06.041Z,1013.75
2022-10-21T06:18:06.185Z,1013.68
2022-10-21T06:19:06.407Z,1013.66
2022-10-21T06:20:06.570Z,1013.60
2022-10-21T06:21:06.715Z,1013.61
2022-10-21T06:22:06.914Z,1013.62
2022-10-21T06:23:07.064Z,1013.61
2022-10-21T06:24:07.272Z,1013.65
2022-10-21T06:25:07.478Z,1013.68
2022-10-21T06:26:07.621Z,1013.69
2022-10-21T06:27:07.774Z,1013.72
2022-10-21T06:28:07.947Z,1013.75
2022-10-21T06:29:08.136Z,1013.70
2022-10-21T06:30:08.301Z,1013.67
2022-10-21T06:31:08.471Z,1013.76
2022-10-21T06:32:08.634Z,1013.78
2022-10-21T06:33:08.845Z,1013.77
2022-10-21T06:34:09.058Z,1013.79
2022-10-21T06:35:09.163Z,1013.77
2022-10-21T06:36:09.324Z,1013.71
2022-10-21T06:37:09.483Z,1013.69
2022-10-21T06:38:09.643Z,1013.73
2022-10-21T06:39:09.824Z,1013.72
2022-10-21T06:40:09.972Z,1013.75
2022-10-21T06:41:13.044Z,1013.76
2022-10-21T06:42:10.334Z,1013.76
2022-10-21T06:43:10.514Z,1013.69
2022-10-21T06:44:10.664Z,1013.69
2022-10-21T06:45:10.844Z,1013.68
2022-10-21T06:46:11.003Z,1013.74
2022-10-21T06:47:11.164Z,1013.79
2022-10-21T06:48:11.324Z,1013.82
2022-10-21T06:49:11.505Z,1013.80
2022-10-21T06:50:11.663Z,1013.82
2022-10-21T06:51:11.835Z,1013.82
2022-10-21T06:52:12.068Z,1013.86
2022-10-21T06:53:12.214Z,1013.83
2022-10-21T06:54:12.420Z,1013.91
2022-10-21T06:55:12.564Z,1013.90
2022-10-21T06:56:12.727Z,1013.86
2022-10-21T06:57:12.889Z,1013.91
2022-10-21T06:58:13.071Z,1013.91
2022-10-21T06:59:13.245Z,1013.95
2022-10-21T07:00:13.399Z,1013.97
2022-10-21T07:01:27.427Z,1013.98
2022-10-21T07:02:14.724Z,1013.92
2022-10-21T07:03:13.897Z,1013.94
2022-10-21T07:04:14.086Z,1013.92
2022-10-21T07:05:14.265Z,1013.89
2022-10-21T07:06:14.433Z,1013.98
2022-10-21T07:07:14.563Z,1013.94
2022-10-21T07:08:14.755Z,1013.95
2022-10-21T07:09:14.994Z,1014.00
2022-10-21T07:10:15.093Z,1013.99
2022-10-21T07:11:15.260Z,1014.07
2022-10-21T07:12:15.512Z,1014.08
2022-10-21T07:13:15.641Z,1014.06
2022-10-21T07:14:15.842Z,1014.02
2022-10-21T07:15:15.953Z,1014.04
2022-10-21T07:16:16.158Z,1014.06
2022-10-21T07:17:16.304Z,1014.04
2022-10-21T07:18:16.483Z,1014.08
2022-10-21T07:19:16.683Z,1014.13
2022-10-21T07:20:16.802Z,1014.13
2022-10-21T07:21:16.963Z,1014.12
2022-10-21T07:22:17.144Z,1014.12
2022-10-21T07:23:17.303Z,1014.06
2022-10-21T07:24:22.148Z,1014.10
2022-10-21T07:25:18.665Z,1014.10
2022-10-21T07:26:17.841Z,1014.04
2022-10-21T07:27:18.004Z,1014.06
2022-10-21T07:28:18.183Z,1014.11
2022-10-21T07:29:18.383Z,1014.09
2022-10-21T07:30:18.543Z,1014.09
2022-10-21T07:31:18.730Z,1014.12
2022-10-21T07:32:18.915Z,1014.07
2022-10-21T07:33:19.095Z,1014.09
2022-10-21T07:34:19.281Z,1014.09
2022-10-21T07:35:19.453Z,1014.11
2022-10-21T07:36:19.633Z,1014.04
2022-10-21T07:37:19.783Z,1014.03
2022-10-21T07:38:22.225Z,1014.04
2022-10-21T07:39:20.147Z,1014.02
2022-10-21T07:40:20.333Z,1014.11
2022-10-21T07:41:20.513Z,1014.06
2022-10-21T07:42:20.711Z,1014.05
2022-10-21T07:43:20.893Z,1014.09
2022-10-21T07:44:21.093Z,1014.15
2022-10-21T07:45:21.243Z,1014.04
2022-10-21T07:46:21.427Z,1014.03
2022-10-21T07:47:21.606Z,1013.98
2022-10-21T07:48:21.794Z,1013.99
2022-10-21T07:49:21.993Z,1014.01
2022-10-21T07:50:22.213Z,1014.06
2022-10-21T07:51:25.700Z,1014.05
2022-10-21T07:52:23.496Z,1014.09
2022-10-21T07:53:22.643Z,1014.03
2022-10-21T07:54:22.845Z,1014.02
2022-10-21T07:55:22.987Z,1014.05
2022-10-21T07:56:23.165Z,1014.08
2022-10-21T07:57:23.354Z,1014.15
2022-10-21T07:58:23.513Z,1014.11
2022-10-21T07:59:23.724Z,1014.11
2022-10-21T08:00:23.874Z,1014.09
2022-10-21T08:01:24.182Z,1014.11
2022-10-21T08:02:24.225Z,1014.05
2022-10-21T08:03:24.403Z,1013.99
2022-10-21T08:04:24.611Z,1013.96
2022-10-21T08:05:24.783Z,1013.98
2022-10-21T08:06:24.974Z,1013.98
2022-10-21T08:07:25.135Z,1014.01
2022-10-21T08:08:25.315Z,1013.94
2022-10-21T08:09:25.504Z,1013.96
2022-10-21T08:10:25.694Z,1013.85
2022-10-21T08:11:25.901Z,1013.81
2022-10-21T08:12:26.034Z,1013.80
2022-10-21T08:13:26.215Z,1013.77
2022-10-21T08:14:26.413Z,1013.76
2022-10-21T08:15:26.554Z,1013.69
2022-10-21T08:16:26.747Z,1013.62
2022-10-21T08:17:26.934Z,1013.60
2022-10-21T08:18:27.096Z,1013.62
2022-10-21T08:19:27.254Z,1013.65
2022-10-21T08:20:27.435Z,1013.65
2022-10-21T08:21:27.615Z,1013.68
2022-10-21T08:22:27.808Z,1013.69
2022-10-21T08:23:27.986Z,1013.69
2022-10-21T08:24:28.178Z,1013.72
2022-10-21T08:25:28.313Z,1013.68
2022-10-21T08:26:28.495Z,1013.73
2022-10-21T08:27:28.676Z,1013.67
2022-10-21T08:28:28.862Z,1013.68
2022-10-21T08:29:29.055Z,1013.70
2022-10-21T08:30:29.204Z,1013.70
2022-10-21T08:31:29.385Z,1013.68
2022-10-21T08:32:29.574Z,1013.64
2022-10-21T08:33:29.756Z,1013.62
2022-10-21T08:34:29.973Z,1013.62
2022-10-21T08:35:30.117Z,1013.54
2022-10-21T08:36:30.284Z,1013.55
2022-10-21T08:37:30.465Z,1013.52
2022-10-21T08:38:30.654Z,1013.51
2022-10-21T08:39:30.888Z,1013.54
2022-10-21T08:40:31.015Z,1013.51
2022-10-21T08:41:31.189Z,1013.54
2022-10-21T08:42:31.355Z,1013.49
2022-10-21T08:43:31.562Z,1013.49
2022-10-21T08:44:31.741Z,1013.46
2022-10-21T08:45:31.893Z,1013.48
2022-10-21T08:46:32.077Z,1013.46
2022-10-21T08:47:32.265Z,1013.46
2022-10-21T08:48:32.481Z,1013.44
2022-10-21T08:49:32.615Z,1013.41
2022-10-21T08:50:32.796Z,1013.48
2022-10-21T08:51:32.985Z,1013.48
2022-10-21T08:52:33.178Z,1013.53
2022-10-21T08:53:33.342Z,1013.45
2022-10-21T08:54:33.504Z,1013.46
2022-10-21T08:55:33.678Z,1013.35
2022-10-21T08:56:33.866Z,1013.31
2022-10-21T08:57:34.045Z,1013.28
2022-10-21T08:58:34.263Z,1013.31
2022-10-21T08:59:34.396Z,1013.28
2022-10-21T09:00:34.586Z,1013.21
2022-10-21T09:01:34.767Z,1013.18
2022-10-21T09:02:34.995Z,1013.13
2022-10-21T09:03:35.128Z,1013.10
2022-10-21T09:04:35.302Z,1013.05
2022-10-21T09:05:35.475Z,1013.08
2022-10-21T09:06:35.646Z,1013.08
2022-10-21T09:07:36.020Z,1013.12
2022-10-21T09:08:36.122Z,1013.11
2022-10-21T09:09:36.157Z,1013.07
2022-10-21T09:10:36.348Z,1013.13
2022-10-21T09:11:36.498Z,1013.06
2022-10-21T09:12:36.690Z,1013.11
2022-10-21T09:13:36.888Z,1013.10
2022-10-21T09:14:37.038Z,1013.06
2022-10-21T09:15:37.220Z,1013.07
2022-10-21T09:16:37.406Z,1013.01
2022-10-21T09:17:37.997Z,1013.05
2022-10-21T09:18:37.771Z,1013.02
2022-10-21T09:19:37.948Z,1013.04
2022-10-21T09:20:38.128Z,1013.10
2022-10-21T09:21:38.309Z,1013.06
2022-10-21T09:22:38.518Z,1013.04
2022-10-21T09:23:38.694Z,1013.05
2022-10-21T09:24:38.819Z,1013.06
2022-10-21T09:25:38.979Z,1013.01
2022-10-21T09:26:39.159Z,1012.99
2022-10-21T09:27:55.105Z,1013.02
2022-10-21T09:28:40.608Z,1013.06
2022-10-21T09:29:39.708Z,1013.08
2022-10-21T09:30:39.890Z,1013.07
2022-10-21T09:31:40.079Z,1013.08
2022-10-21T09:32:40.269Z,1013.05
2022-10-21T09:33:40.468Z,1013.09
2022-10-21T09:34:40.649Z,1013.06
2022-10-21T09:35:40.819Z,1012.99
2022-10-21T09:36:40.989Z,1013.02
2022-10-21T09:37:41.705Z,1013.03
2022-10-21T09:38:41.350Z,1013.02
2022-10-21T09:39:41.532Z,1013.00
2022-10-21T09:40:41.721Z,1013.00
2022-10-21T09:41:41.864Z,1012.99
2022-10-21T09:42:47.392Z,1012.95
2022-10-21T09:43:43.220Z,1012.94
2022-10-21T09:44:42.370Z,1012.93
2022-10-21T09:45:42.560Z,1012.99
2022-10-21T09:46:42.724Z,1012.95
2022-10-21T09:47:42.919Z,1012.90
2022-10-21T09:49:06.872Z,1012.96
2022-10-21T09:50:05.919Z,1012.95
2022-10-21T09:50:44.431Z,1012.92
2022-10-21T09:51:43.563Z,1012.90
2022-10-21T09:52:43.761Z,1012.91
2022-10-21T09:53:52.920Z,1012.89
2022-10-21T09:54:45.119Z,1012.86
2022-10-21T09:55:44.299Z,1012.87
2022-10-21T09:56:44.441Z,1012.91
2022-10-21T09:57:44.638Z,1012.94
2022-10-21T09:58:44.831Z,1012.95
2022-10-21T09:59:44.972Z,1012.93
2022-10-21T10:00:45.150Z,1012.88
2022-10-21T10:01:45.344Z,1012.92
2022-10-21T10:02:45.501Z,1012.88
2022-10-21T10:03:45.689Z,1012.85
2022-10-21T10:04:45.855Z,1012.83
2022-10-21T10:05:46.001Z,1012.79
2022-10-21T10:06:46.180Z,1012.87
2022-10-21T10:07:46.333Z,1012.82
2022-10-21T10:08:46.664Z,1012.81
2022-10-21T10:09:46.676Z,1012.78
2022-10-21T10:10:46.862Z,1012.80
2022-10-21T10:11:47.066Z,1012.80
2022-10-21T10:12:47.244Z,1012.79
2022-10-21T10:13:47.402Z,1012.71
2022-10-21T10:14:47.553Z,1012.67
2022-10-21T10:15:47.743Z,1012.66
2022-10-21T10:16:47.960Z,1012.66
2022-10-21T10:17:48.101Z,1012.60
2022-10-21T10:18:48.313Z,1012.60
2022-10-21T10:19:48.451Z,1012.58
2022-10-21T10:20:48.653Z,1012.63
2022-10-21T10:21:48.783Z,1012.62
2022-10-21T10:22:48.983Z,1012.62
2022-10-21T10:23:49.151Z,1012.64
2022-10-21T10:24:49.326Z,1012.59
2022-10-21T10:25:49.523Z,1012.61
2022-10-21T10:26:49.669Z,1012.59
2022-10-21T10:27:49.847Z,1012.57
2022-10-21T10:28:50.032Z,1012.56
2022-10-21T10:29:50.197Z,1012.59
2022-10-21T10:30:50.467Z,1012.59
2022-10-21T10:31:50.994Z,1012.56
2022-10-21T10:32:50.705Z,1012.54
2022-10-21T10:33:52.621Z,1012.54
2022-10-21T10:34:51.064Z,1012.53
2022-10-21T10:35:51.245Z,1012.48
2022-10-21T10:36:51.468Z,1012.45
2022-10-21T10:37:51.615Z,1012.40
2022-10-21T10:38:51.815Z,1012.37
2022-10-21T10:39:51.969Z,1012.37
2022-10-21T10:40:55.171Z,1012.39
2022-10-21T10:41:53.336Z,1012.37
2022-10-21T10:42:52.526Z,1012.32
2022-10-21T10:43:52.718Z,1012.33
2022-10-21T10:44:52.885Z,1012.37
2022-10-21T10:45:53.037Z,1012.33
2022-10-21T10:46:53.207Z,1012.36
2022-10-21T10:47:53.406Z,1012.40
2022-10-21T10:48:53.606Z,1012.37
2022-10-21T10:49:53.747Z,1012.35
2022-10-21T10:50:53.923Z,1012.36
2022-10-21T10:51:54.109Z,1012.38
2022-10-21T10:52:54.296Z,1012.31
2022-10-21T10:53:54.496Z,1012.29
2022-10-21T10:54:54.648Z,1012.32
2022-10-21T10:55:54.825Z,1012.33
2022-10-21T10:56:54.956Z,1012.33
2022-10-21T10:58:12.697Z,1012.30
2022-10-21T10:58:56.317Z,1012.29
2022-10-21T10:59:55.485Z,1012.28
2022-10-21T11:00:55.731Z,1012.30
2022-10-21T11:01:55.849Z,1012.29
2022-10-21T11:02:56.027Z,1012.26
2022-10-21T11:03:56.237Z,1012.35
2022-10-21T11:04:56.414Z,1012.33
2022-10-21T11:05:56.598Z,1012.31
2022-10-21T11:06:56.788Z,1012.33
2022-10-21T11:07:56.982Z,1012.30
2022-10-21T11:08:57.204Z,1012.35
2022-10-21T11:09:57.317Z,1012.32
2022-10-21T11:10:57.507Z,1012.33
2022-10-21T11:11:57.700Z,1012.31
2022-10-21T11:12:57.916Z,1012.30
2022-10-21T11:13:58.048Z,1012.31
2022-10-21T11:14:58.196Z,1012.34
2022-10-21T11:15:58.379Z,1012.34
2022-10-21T11:17:00.897Z,1012.36
2022-10-21T11:18:07.416Z,1012.28
2022-10-21T11:18:59.898Z,1012.22
2022-10-21T11:19:59.078Z,1012.27
2022-10-21T11:20:59.219Z,1012.25
2022-10-21T11:22:03.767Z,1012.28
2022-10-21T11:23:00.664Z,1012.25
2022-10-21T11:23:59.779Z,1012.25
2022-10-21T11:24:59.950Z,1012.28
2022-10-21T11:26:00.220Z,1012.28
2022-10-21T11:27:00.293Z,1012.25
2022-10-21T11:28:00.504Z,1012.26
2022-10-21T11:29:05.419Z,1012.23
2022-10-21T11:30:01.824Z,1012.23
2022-10-21T11:31:01.010Z,1012.21
2022-10-21T11:32:12.339Z,1012.21
2022-10-21T11:33:02.361Z,1012.22
2022-10-21T11:34:01.575Z,1012.18
2022-10-21T11:35:01.721Z,1012.16
2022-10-21T11:36:01.890Z,1012.16
2022-10-21T11:37:02.071Z,1012.12
2022-10-21T11:38:02.261Z,1012.16
2022-10-21T11:39:02.458Z,1012.16
2022-10-21T11:40:02.652Z,1012.15
2022-10-21T11:41:02.803Z,1012.11
2022-10-21T11:42:02.941Z,1012.09
2022-10-21T11:43:03.121Z,1012.11
2022-10-21T11:44:03.365Z,1012.14
2022-10-21T11:45:03.471Z,1012.17
2022-10-21T11:46:03.651Z,1012.12
2022-10-21T11:47:03.831Z,1012.11
2022-10-21T11:48:04.083Z,1012.12
2022-10-21T11:49:04.211Z,1012.12
2022-10-21T11:50:04.398Z,1012.11
2022-10-21T11:51:06.141Z,1012.09
2022-10-21T11:52:04.695Z,1012.10
2022-10-21T11:53:04.873Z,1012.13
2022-10-21T11:54:05.089Z,1012.09
2022-10-21T11:55:10.307Z,1012.11
2022-10-21T11:56:06.401Z,1012.12
2022-10-21T11:57:05.542Z,1012.09
2022-10-21T11:58:05.746Z,1012.11
2022-10-21T11:59:05.933Z,1012.11
2022-10-21T12:00:06.082Z,1012.07
2022-10-21T12:01:06.310Z,1012.08
2022-10-21T12:02:06.527Z,1012.09
2022-10-21T12:03:06.633Z,1012.09
2022-10-21T12:04:06.845Z,1012.08
2022-10-21T12:05:06.983Z,1012.06
2022-10-21T12:06:07.175Z,1012.03
2022-10-21T12:07:11.048Z,1012.02
2022-10-21T12:08:07.513Z,1012.06